Time;durP1;ratioP1;P1;durP2;ratioP2;P2;SDS_P1;SDS_P2;PMS_P1;PMS_P2;Temp;Humidity;BMP_temperature;BMP_pressure;BME280_temperature;BME280_humidity;BME280_pressure;Samples;Min_cycle;Max_cycle;Signal;HPM_P1;HPM_P2
2023/10/03 00:00:55;;;;;;;11.50;9.10;;;19.00;99.90;;;;;;5031849;28;20225;-77
2023/10/03 00:03:20;;;;;;;14.73;9.40;;;19.00;99.90;;;;;;5033479;28;20198;-74
2023/10/03 00:05:47;;;;;;;16.53;9.80;;;19.00;99.90;;;;;;5031839;28;20200;-68
2023/10/03 00:08:13;;;;;;;16.87;9.17;;;19.00;99.90;;;;;;5031647;28;20202;-67
2023/10/03 00:10:39;;;;;;;13.37;9.33;;;18.90;99.90;;;;;;5033277;28;20210;-68
2023/10/03 00:13:10;;;;;;;14.67;9.43;;;18.90;99.90;;;;;;5033089;28;20667;-66
2023/10/03 00:15:39;;;;;;;17.80;11.63;;;18.90;99.90;;;;;;5025617;28;20202;-66
2023/10/03 00:18:05;;;;;;;14.60;9.97;;;18.90;99.90;;;;;;5030244;28;20197;-65
2023/10/03 00:20:31;;;;;;;15.63;10.37;;;18.90;99.90;;;;;;5034793;28;20228;-65
2023/10/03 00:22:56;;;;;;;14.23;9.73;;;18.90;99.90;;;;;;5032905;28;20201;-67
2023/10/03 00:25:24;;;;;;;13.37;9.00;;;18.80;99.90;;;;;;5032871;28;20213;-66
2023/10/03 00:27:51;;;;;;;12.47;10.17;;;18.90;99.90;;;;;;5031648;28;21127;-68
2023/10/03 00:30:19;;;;;;;15.40;10.13;;;18.80;99.90;;;;;;5032835;28;20210;-67
2023/10/03 00:32:46;;;;;;;15.17;8.83;;;18.80;99.90;;;;;;5028462;28;20219;-67
2023/10/03 00:35:12;;;;;;;14.57;8.30;;;18.80;99.90;;;;;;5032282;28;20211;-68
2023/10/03 00:37:39;;;;;;;14.17;8.30;;;18.80;99.90;;;;;;5034452;28;20204;-69
2023/10/03 00:40:27;;;;;;;14.57;9.77;;;18.90;99.90;;;;;;5034452;28;20362;-66
2023/10/03 00:42:59;;;;;;;13.60;8.87;;;18.90;99.90;;;;;;5027257;28;20879;-69
2023/10/03 00:45:26;;;;;;;14.40;8.30;;;18.90;99.90;;;;;;5025957;28;20288;-68
2023/10/03 00:47:53;;;;;;;15.63;9.00;;;18.90;99.90;;;;;;5030703;28;20216;-69
2023/10/03 00:50:20;;;;;;;16.43;9.10;;;18.90;99.90;;;;;;5031910;28;20296;-67
2023/10/03 00:53:12;;;;;;;13.10;9.07;;;18.90;99.90;;;;;;5025334;28;20210;-67
2023/10/03 00:55:39;;;;;;;13.17;8.20;;;18.80;99.90;;;;;;5031085;28;20202;-67
2023/10/03 00:58:07;;;;;;;13.60;9.07;;;18.80;99.90;;;;;;5032095;28;20201;-61
2023/10/03 01:00:41;;;;;;;12.60;8.07;;;18.80;99.90;;;;;;5032136;28;20706;-69
2023/10/03 01:03:36;;;;;;;11.47;8.03;;;18.80;99.90;;;;;;5032472;28;20203;-68
2023/10/03 01:06:09;;;;;;;11.83;8.70;;;18.80;99.90;;;;;;5032404;28;20627;-65
2023/10/03 01:08:38;;;;;;;11.30;8.17;;;18.80;99.90;;;;;;5031882;28;20242;-65
2023/10/03 01:11:15;;;;;;;13.50;8.67;;;18.80;99.90;;;;;;5023990;28;20190;-67
2023/10/03 01:13:40;;;;;;;18.30;8.10;;;18.70;99.90;;;;;;5031597;28;20202;-67
2023/10/03 01:16:06;;;;;;;11.30;7.83;;;18.70;99.90;;;;;;5032047;28;20306;-64
2023/10/03 01:18:36;;;;;;;10.53;7.37;;;18.70;99.90;;;;;;5032529;28;20411;-64
2023/10/03 01:21:04;;;;;;;14.20;8.33;;;18.70;99.90;;;;;;5031323;28;20243;-63
2023/10/03 01:23:35;;;;;;;11.57;6.70;;;18.60;99.90;;;;;;5029005;28;20228;-69
2023/10/03 01:26:02;;;;;;;12.57;7.10;;;18.70;99.90;;;;;;5032510;28;20269;-70
2023/10/03 01:28:27;;;;;;;13.27;7.47;;;18.60;99.90;;;;;;5030656;28;20708;-70
2023/10/03 01:30:54;;;;;;;13.27;8.33;;;18.50;99.90;;;;;;5033534;28;20208;-71
2023/10/03 01:33:22;;;;;;;11.40;8.03;;;18.50;99.90;;;;;;5031069;28;20673;-69
2023/10/03 01:35:48;;;;;;;13.37;7.80;;;18.50;99.90;;;;;;5034240;28;20237;-70
2023/10/03 01:38:14;;;;;;;10.00;6.70;;;18.50;99.90;;;;;;5032265;28;20207;-71
2023/10/03 01:40:40;;;;;;;10.33;7.63;;;18.40;99.90;;;;;;5032012;28;20303;-70
2023/10/03 01:43:07;;;;;;;15.13;7.90;;;18.40;99.90;;;;;;5025409;28;20302;-70
2023/10/03 01:45:35;;;;;;;10.30;6.97;;;18.50;99.90;;;;;;5027054;28;20297;-69
2023/10/03 01:48:04;;;;;;;11.43;7.80;;;18.50;99.90;;;;;;5025680;28;20194;-70
2023/10/03 01:50:33;;;;;;;14.67;7.53;;;18.50;99.90;;;;;;5033319;28;20245;-70
2023/10/03 01:52:59;;;;;;;12.20;6.77;;;18.40;99.90;;;;;;5032170;28;20204;-68
2023/10/03 01:55:24;;;;;;;12.17;7.60;;;18.40;99.90;;;;;;5034226;28;20233;-69
2023/10/03 01:57:50;;;;;;;11.80;7.43;;;18.40;99.90;;;;;;5031666;28;20205;-64
2023/10/03 02:00:26;;;;;;;10.27;6.40;;;18.40;99.90;;;;;;5028779;28;21028;-65
2023/10/03 02:02:56;;;;;;;12.63;6.50;;;18.30;99.90;;;;;;5030720;28;20754;-72
2023/10/03 02:05:23;;;;;;;10.23;6.60;;;18.20;99.90;;;;;;5023647;28;20205;-72
2023/10/03 02:07:49;;;;;;;12.03;7.60;;;18.20;99.90;;;;;;5023698;28;20617;-64
2023/10/03 02:10:15;;;;;;;10.80;7.23;;;18.20;99.90;;;;;;5042827;28;20696;-71
2023/10/03 02:12:48;;;;;;;12.30;7.37;;;18.20;99.90;;;;;;5037664;28;20200;-64
2023/10/03 02:15:20;;;;;;;10.07;6.63;;;18.30;99.90;;;;;;5031937;28;20196;-63
2023/10/03 02:17:46;;;;;;;11.07;7.63;;;18.20;99.90;;;;;;5029788;28;20205;-63
2023/10/03 02:20:16;;;;;;;10.50;6.93;;;18.10;99.90;;;;;;5030212;28;20270;-63
2023/10/03 02:22:41;;;;;;;13.67;7.47;;;18.10;99.90;;;;;;5031583;28;20213;-66
2023/10/03 02:25:11;;;;;;;13.00;7.17;;;18.10;99.90;;;;;;5034971;28;20576;-63
2023/10/03 02:27:36;;;;;;;13.33;7.13;;;18.00;99.90;;;;;;5035543;28;20309;-66
2023/10/03 02:30:07;;;;;;;16.57;7.33;;;18.00;99.90;;;;;;5035511;28;20191;-68
2023/10/03 02:32:34;;;;;;;14.57;8.13;;;18.00;99.90;;;;;;5031940;28;20219;-69
2023/10/03 02:35:00;;;;;;;11.10;6.97;;;17.80;99.90;;;;;;5037110;28;20686;-72
2023/10/03 02:37:26;;;;;;;15.37;7.80;;;17.80;99.90;;;;;;5035474;28;20210;-65
2023/10/03 02:39:52;;;;;;;11.80;8.07;;;17.80;99.90;;;;;;5035256;28;20520;-65
2023/10/03 02:42:18;;;;;;;12.03;8.13;;;17.70;99.90;;;;;;5034697;28;20219;-62
2023/10/03 02:44:43;;;;;;;11.53;7.67;;;17.60;99.90;;;;;;5030536;28;20206;-62
2023/10/03 02:47:10;;;;;;;9.70;7.20;;;17.60;99.90;;;;;;5030172;28;20240;-72
2023/10/03 02:49:35;;;;;;;13.27;7.33;;;17.60;99.90;;;;;;5032610;28;20737;-72
2023/10/03 02:52:01;;;;;;;10.33;7.37;;;17.60;99.90;;;;;;5031586;28;20322;-71
2023/10/03 02:54:26;;;;;;;14.70;8.13;;;17.50;99.90;;;;;;5029231;28;20221;-72
2023/10/03 02:56:52;;;;;;;11.03;7.77;;;17.50;99.90;;;;;;5034165;28;22472;-60
2023/10/03 02:59:17;;;;;;;12.80;8.30;;;17.50;99.90;;;;;;5032838;28;20226;-60
2023/10/03 03:01:44;;;;;;;12.03;7.97;;;17.50;99.90;;;;;;5032430;28;20210;-60
2023/10/03 03:04:12;;;;;;;9.47;7.73;;;17.50;99.90;;;;;;5033078;28;20207;-60
2023/10/03 03:06:40;;;;;;;10.40;7.53;;;17.40;99.90;;;;;;5036288;28;20291;-61
2023/10/03 03:09:07;;;;;;;10.40;7.37;;;17.40;99.90;;;;;;5029940;28;20208;-70
2023/10/03 03:11:33;;;;;;;10.80;7.10;;;17.30;99.90;;;;;;5035437;28;20278;-70
2023/10/03 03:13:58;;;;;;;12.10;7.83;;;17.30;99.90;;;;;;5033371;28;20286;-69
2023/10/03 03:16:24;;;;;;;12.90;7.63;;;17.30;99.90;;;;;;5034428;28;20200;-69
2023/10/03 03:18:50;;;;;;;14.17;8.63;;;17.20;99.90;;;;;;5034345;28;20256;-69
2023/10/03 03:21:15;;;;;;;14.67;8.43;;;17.10;99.90;;;;;;5033875;28;20199;-68
2023/10/03 03:23:43;;;;;;;14.97;9.00;;;17.10;99.90;;;;;;5032565;28;20282;-68
2023/10/03 03:26:17;;;;;;;11.27;8.33;;;17.10;99.90;;;;;;5031715;28;20223;-68
2023/10/03 03:28:47;;;;;;;15.17;8.77;;;17.00;99.90;;;;;;5048085;28;20618;-69
2023/10/03 03:31:22;;;;;;;18.30;9.63;;;17.00;99.90;;;;;;5028385;28;20205;-69
2023/10/03 03:33:58;;;;;;;17.67;9.37;;;17.10;99.90;;;;;;5028649;28;20286;-68
2023/10/03 03:36:34;;;;;;;14.90;8.87;;;17.00;99.90;;;;;;5028997;28;20191;-67
2023/10/03 03:39:14;;;;;;;11.47;7.87;;;17.00;99.90;;;;;;5027780;28;20196;-67
2023/10/03 03:41:41;;;;;;;15.43;8.93;;;17.00;99.90;;;;;;5029747;28;20198;-67
2023/10/03 03:44:11;;;;;;;16.90;9.47;;;17.00;99.90;;;;;;5029580;28;20761;-68
2023/10/03 03:46:40;;;;;;;14.77;8.57;;;17.00;99.90;;;;;;5033640;28;20756;-68
2023/10/03 03:49:06;;;;;;;16.60;9.70;;;16.90;99.90;;;;;;5030495;28;20277;-62
2023/10/03 03:51:31;;;;;;;22.60;10.93;;;17.00;99.90;;;;;;5028901;28;20640;-62
2023/10/03 03:53:59;;;;;;;19.37;9.67;;;16.90;99.90;;;;;;5031844;28;20195;-69
2023/10/03 03:56:25;;;;;;;16.90;10.27;;;17.00;99.90;;;;;;5032597;28;20195;-69
2023/10/03 03:58:50;;;;;;;18.93;10.03;;;16.80;99.90;;;;;;5034102;28;20630;-69
2023/10/03 04:01:19;;;;;;;17.53;11.10;;;16.80;99.90;;;;;;5033556;28;20207;-69
2023/10/03 04:03:46;;;;;;;19.33;9.13;;;16.90;99.90;;;;;;5033682;28;20565;-68
2023/10/03 04:06:12;;;;;;;16.63;9.63;;;16.90;99.90;;;;;;5038693;28;20207;-70
2023/10/03 04:08:40;;;;;;;15.30;9.20;;;16.90;99.90;;;;;;5048317;28;20320;-69
2023/10/03 04:11:07;;;;;;;15.93;8.50;;;16.90;99.90;;;;;;5050402;28;20210;-70
2023/10/03 04:13:38;;;;;;;16.43;9.30;;;16.90;99.90;;;;;;5045829;28;20814;-71
2023/10/03 04:16:08;;;;;;;17.87;10.13;;;16.90;99.90;;;;;;5046604;28;20226;-70
2023/10/03 04:18:34;;;;;;;16.53;10.50;;;16.90;99.90;;;;;;5047023;28;20218;-71
2023/10/03 04:21:00;;;;;;;17.13;10.10;;;17.00;99.90;;;;;;5049555;28;20218;-75
2023/10/03 04:23:26;;;;;;;17.80;10.17;;;16.90;99.90;;;;;;5044087;28;20195;-68
2023/10/03 04:25:52;;;;;;;17.93;10.53;;;16.90;99.90;;;;;;5035986;28;20306;-63
2023/10/03 04:28:18;;;;;;;17.00;9.87;;;16.90;99.90;;;;;;5032090;28;20281;-61
2023/10/03 04:30:43;;;;;;;16.20;10.30;;;16.90;99.90;;;;;;5032746;28;20234;-61
2023/10/03 04:33:09;;;;;;;17.60;10.30;;;17.00;99.90;;;;;;5033349;28;20214;-68
2023/10/03 04:35:35;;;;;;;16.73;9.10;;;16.90;99.90;;;;;;5032107;28;20210;-69
2023/10/03 04:38:00;;;;;;;18.10;11.17;;;16.90;99.90;;;;;;5034135;28;20199;-69
2023/10/03 04:40:33;;;;;;;16.87;10.17;;;16.90;99.90;;;;;;5031757;28;20217;-69
2023/10/03 04:42:59;;;;;;;18.57;10.10;;;16.80;99.90;;;;;;5033346;28;20276;-69
2023/10/03 04:45:25;;;;;;;19.80;11.43;;;17.00;99.90;;;;;;5031867;28;20203;-69
2023/10/03 04:47:51;;;;;;;18.03;10.80;;;16.90;99.90;;;;;;5033433;28;20198;-71
2023/10/03 04:50:18;;;;;;;18.60;11.20;;;16.90;99.90;;;;;;5031941;28;20201;-71
2023/10/03 04:52:48;;;;;;;16.17;9.80;;;16.90;99.90;;;;;;5032245;28;20214;-70
2023/10/03 04:55:14;;;;;;;16.03;10.17;;;16.80;99.90;;;;;;5028403;28;20837;-71
2023/10/03 04:57:41;;;;;;;16.07;10.93;;;16.90;99.90;;;;;;5033782;28;20210;-70
2023/10/03 05:00:08;;;;;;;19.40;11.43;;;16.80;99.90;;;;;;5033716;28;20712;-69
2023/10/03 05:02:33;;;;;;;16.60;10.13;;;16.80;99.90;;;;;;5032032;28;20255;-70
2023/10/03 05:04:59;;;;;;;18.43;11.20;;;16.90;99.90;;;;;;5033233;28;20677;-70
2023/10/03 05:07:24;;;;;;;16.57;10.93;;;16.90;99.90;;;;;;5033484;28;20187;-69
2023/10/03 05:09:54;;;;;;;17.73;10.37;;;17.00;99.90;;;;;;5032745;28;20195;-68
2023/10/03 05:12:20;;;;;;;19.03;11.37;;;17.00;99.90;;;;;;5029167;28;20210;-66
2023/10/03 05:14:47;;;;;;;21.20;11.40;;;17.00;99.90;;;;;;5032166;28;20202;-69
2023/10/03 05:17:14;;;;;;;18.73;9.87;;;17.00;99.90;;;;;;5047815;28;20350;-69
2023/10/03 05:19:41;;;;;;;18.33;10.57;;;17.00;99.90;;;;;;5032365;28;20218;-70
2023/10/03 05:22:08;;;;;;;23.17;11.20;;;17.00;99.90;;;;;;5033217;28;20221;-69
2023/10/03 05:24:34;;;;;;;21.70;10.93;;;17.10;99.90;;;;;;5025246;28;20198;-70
2023/10/03 05:27:00;;;;;;;18.50;9.77;;;17.00;99.90;;;;;;5029707;28;20220;-66
2023/10/03 05:29:27;;;;;;;19.47;10.47;;;17.10;99.90;;;;;;5029991;28;20741;-64
2023/10/03 05:31:54;;;;;;;20.13;12.10;;;17.20;99.90;;;;;;5030053;28;20199;-65
2023/10/03 05:34:23;;;;;;;20.87;11.43;;;17.20;99.90;;;;;;5026755;28;20755;-65
2023/10/03 05:36:49;;;;;;;19.80;11.47;;;17.20;99.90;;;;;;5029225;28;20195;-64
2023/10/03 05:39:18;;;;;;;20.57;11.43;;;17.20;99.90;;;;;;5020679;28;20244;-64
2023/10/03 05:41:44;;;;;;;18.83;11.27;;;17.20;99.90;;;;;;5027005;28;20306;-74
2023/10/03 05:44:11;;;;;;;26.53;11.67;;;17.20;99.90;;;;;;5027806;28;20713;-72
2023/10/03 05:46:38;;;;;;;18.57;11.30;;;17.30;99.90;;;;;;5031971;28;20572;-71
2023/10/03 05:49:04;;;;;;;18.57;10.60;;;17.30;99.90;;;;;;5024495;28;20750;-70
2023/10/03 05:51:29;;;;;;;21.03;11.07;;;17.30;99.90;;;;;;5033007;28;20207;-70
2023/10/03 05:53:55;;;;;;;24.43;11.63;;;17.40;99.90;;;;;;5033413;28;20723;-71
2023/10/03 05:56:21;;;;;;;20.70;11.37;;;17.40;99.90;;;;;;5031758;28;20617;-71
2023/10/03 05:58:47;;;;;;;22.10;12.07;;;17.50;99.90;;;;;;5036375;28;20669;-64
2023/10/03 06:01:13;;;;;;;19.37;11.83;;;17.50;99.90;;;;;;5034200;28;20694;-64
2023/10/03 06:03:39;;;;;;;20.37;12.17;;;17.50;99.90;;;;;;5033572;28;20193;-61
2023/10/03 06:06:04;;;;;;;22.27;11.10;;;17.40;99.90;;;;;;5029587;28;20281;-61
2023/10/03 06:08:32;;;;;;;17.83;10.40;;;17.50;99.90;;;;;;5036117;28;20260;-60
2023/10/03 06:11:03;;;;;;;20.20;11.40;;;17.50;99.90;;;;;;5037951;28;20190;-68
2023/10/03 06:13:28;;;;;;;19.67;10.50;;;17.60;99.90;;;;;;5033130;28;20206;-66
2023/10/03 06:15:54;;;;;;;24.77;12.27;;;17.60;99.90;;;;;;5037613;28;20664;-65
2023/10/03 06:18:19;;;;;;;16.60;10.37;;;17.70;99.90;;;;;;5034237;28;20252;-64
2023/10/03 06:20:49;;;;;;;20.50;11.00;;;17.60;99.90;;;;;;5036078;28;20291;-65
2023/10/03 06:23:15;;;;;;;18.83;11.27;;;17.60;99.90;;;;;;5033055;28;20544;-65
2023/10/03 06:25:40;;;;;;;20.67;11.03;;;17.70;99.90;;;;;;5034748;28;20928;-66
2023/10/03 06:28:06;;;;;;;21.27;10.97;;;17.80;99.90;;;;;;5033403;28;20228;-66
2023/10/03 06:30:31;;;;;;;21.20;12.23;;;17.80;99.90;;;;;;5032728;28;20991;-66
2023/10/03 06:32:58;;;;;;;21.43;10.77;;;17.80;99.90;;;;;;5034966;28;20244;-67
2023/10/03 06:35:23;;;;;;;19.90;11.83;;;17.80;99.90;;;;;;5030625;28;20584;-66
2023/10/03 06:37:49;;;;;;;21.10;11.60;;;17.80;99.90;;;;;;5033711;28;20207;-67
2023/10/03 06:40:16;;;;;;;18.03;10.40;;;17.80;99.90;;;;;;5033107;28;20623;-68
2023/10/03 06:42:41;;;;;;;22.37;11.87;;;17.80;99.90;;;;;;5032423;28;20195;-67
2023/10/03 06:45:13;;;;;;;18.20;10.20;;;17.80;99.90;;;;;;5031569;28;20211;-68
2023/10/03 06:47:39;;;;;;;22.03;11.53;;;17.90;99.90;;;;;;5031670;28;20255;-66
2023/10/03 06:50:05;;;;;;;19.67;11.33;;;18.00;99.90;;;;;;5032735;28;20958;-71
2023/10/03 06:52:32;;;;;;;22.07;11.93;;;17.90;99.90;;;;;;5034743;28;20203;-67
2023/10/03 06:54:58;;;;;;;22.27;13.23;;;18.00;99.90;;;;;;5035439;28;20697;-67
2023/10/03 06:57:24;;;;;;;19.80;11.73;;;18.00;99.90;;;;;;5034538;28;20927;-67
2023/10/03 06:59:49;;;;;;;20.37;11.77;;;18.00;99.90;;;;;;5028622;28;20222;-71
2023/10/03 07:02:15;;;;;;;19.53;11.87;;;17.90;99.90;;;;;;5030695;28;20200;-66
2023/10/03 07:04:40;;;;;;;21.30;12.20;;;18.00;99.90;;;;;;5027393;28;20204;-66
2023/10/03 07:07:07;;;;;;;20.87;12.60;;;18.20;99.90;;;;;;5031316;28;20201;-65
2023/10/03 07:09:32;;;;;;;22.40;12.67;;;18.30;99.90;;;;;;5030844;28;20194;-68
2023/10/03 07:11:58;;;;;;;23.07;12.70;;;18.40;99.90;;;;;;5032780;28;20200;-63
2023/10/03 07:14:24;;;;;;;24.70;13.40;;;18.50;99.90;;;;;;5021111;28;20200;-64
2023/10/03 07:16:49;;;;;;;22.87;11.33;;;18.50;99.90;;;;;;5033852;28;20198;-64
2023/10/03 07:19:15;;;;;;;25.30;12.00;;;18.60;99.90;;;;;;5026381;28;20220;-70
2023/10/03 07:21:42;;;;;;;21.73;11.90;;;18.70;99.90;;;;;;5036113;28;20225;-63
2023/10/03 07:24:07;;;;;;;22.97;12.67;;;18.70;99.90;;;;;;5033636;28;20279;-65
2023/10/03 07:26:33;;;;;;;25.33;12.63;;;18.80;99.90;;;;;;5033243;28;20337;-66
2023/10/03 07:29:01;;;;;;;24.97;13.33;;;18.80;99.90;;;;;;5032468;28;20280;-65
2023/10/03 07:31:27;;;;;;;22.43;12.87;;;18.90;99.90;;;;;;5030334;28;20220;-64
2023/10/03 07:33:54;;;;;;;22.47;13.20;;;19.00;99.90;;;;;;5031165;28;20284;-65
2023/10/03 07:36:20;;;;;;;25.30;12.73;;;19.00;99.90;;;;;;5032651;28;20626;-65
2023/10/03 07:38:45;;;;;;;24.77;13.20;;;19.10;99.90;;;;;;5023724;28;20692;-65
2023/10/03 07:41:15;;;;;;;25.93;13.83;;;19.20;99.90;;;;;;5031006;28;20215;-65
2023/10/03 07:43:41;;;;;;;24.00;11.73;;;19.20;99.90;;;;;;5029899;28;20274;-65
2023/10/03 07:46:06;;;;;;;23.03;12.43;;;19.30;99.90;;;;;;5034116;28;20284;-65
2023/10/03 07:48:32;;;;;;;29.80;12.77;;;19.40;99.90;;;;;;5034106;28;21219;-65
2023/10/03 07:50:58;;;;;;;23.80;13.83;;;19.40;99.90;;;;;;5033483;28;20742;-65
2023/10/03 07:53:23;;;;;;;25.97;13.67;;;19.50;99.90;;;;;;5033684;28;20208;-65
2023/10/03 07:55:49;;;;;;;21.07;12.33;;;19.60;99.90;;;;;;5030532;28;20220;-65
2023/10/03 07:58:14;;;;;;;26.70;14.20;;;19.70;99.90;;;;;;5033189;28;20186;-65
2023/10/03 08:00:44;;;;;;;21.80;12.37;;;19.80;99.90;;;;;;5031188;28;20293;-65
2023/10/03 08:03:11;;;;;;;26.23;14.13;;;19.90;99.90;;;;;;5029770;28;20197;-65
2023/10/03 08:05:37;;;;;;;25.13;12.97;;;20.00;99.90;;;;;;5032734;28;20203;-65
2023/10/03 08:08:04;;;;;;;28.53;13.20;;;20.00;99.90;;;;;;5033549;28;20600;-65
2023/10/03 08:10:32;;;;;;;24.83;13.33;;;20.10;99.90;;;;;;5035886;28;20198;-65
2023/10/03 08:12:59;;;;;;;25.30;13.40;;;20.20;99.90;;;;;;5035276;28;20387;-66
2023/10/03 08:15:31;;;;;;;21.03;12.87;;;20.40;99.90;;;;;;5031171;28;20184;-67
2023/10/03 08:17:58;;;;;;;24.90;13.60;;;20.60;99.90;;;;;;5032152;28;20282;-64
2023/10/03 08:20:24;;;;;;;26.10;13.93;;;20.60;99.90;;;;;;5030286;28;20501;-64
2023/10/03 08:22:52;;;;;;;26.33;15.43;;;20.70;99.90;;;;;;5032218;28;20216;-65
2023/10/03 08:25:20;;;;;;;26.40;15.30;;;20.80;99.90;;;;;;5033489;28;20702;-65
2023/10/03 08:27:46;;;;;;;22.37;12.97;;;20.80;99.90;;;;;;5023045;28;20651;-68
2023/10/03 08:30:25;;;;;;;24.47;13.43;;;20.80;99.90;;;;;;5028409;28;20199;-66
2023/10/03 08:32:54;;;;;;;23.80;13.07;;;20.90;99.90;;;;;;5031702;28;20267;-66
2023/10/03 08:35:20;;;;;;;25.87;13.20;;;20.90;99.90;;;;;;5031607;28;20202;-66
2023/10/03 08:37:45;;;;;;;21.57;12.57;;;21.00;99.90;;;;;;5027562;28;20211;-67
2023/10/03 08:40:19;;;;;;;24.93;13.70;;;21.10;99.90;;;;;;5028285;28;20607;-65
2023/10/03 08:42:52;;;;;;;24.30;13.40;;;21.10;99.90;;;;;;5028333;28;20217;-65
2023/10/03 08:45:22;;;;;;;24.67;13.80;;;21.20;99.90;;;;;;5029891;28;20673;-65
2023/10/03 08:47:53;;;;;;;25.60;14.90;;;21.30;99.90;;;;;;5032655;28;20201;-64
2023/10/03 08:50:33;;;;;;;25.43;15.03;;;21.30;99.90;;;;;;5047295;28;20280;-64
2023/10/03 08:53:16;;;;;;;22.70;13.53;;;21.30;99.90;;;;;;5026859;28;20189;-66
2023/10/03 08:55:50;;;;;;;24.77;13.70;;;21.30;99.90;;;;;;5030303;28;20285;-64
2023/10/03 08:58:24;;;;;;;25.53;13.83;;;21.30;99.90;;;;;;5027470;28;20196;-64
2023/10/03 09:00:58;;;;;;;24.60;13.20;;;21.40;99.90;;;;;;5031460;28;20209;-65
2023/10/03 09:03:25;;;;;;;22.87;12.63;;;21.40;99.90;;;;;;5027713;28;20426;-64
2023/10/03 09:05:51;;;;;;;24.47;13.83;;;21.50;99.90;;;;;;5025857;28;20335;-64
2023/10/03 09:08:17;;;;;;;19.60;12.57;;;21.60;99.90;;;;;;5029241;28;20620;-66
2023/10/03 09:10:55;;;;;;;24.60;12.77;;;21.60;99.90;;;;;;5027085;28;20272;-69
2023/10/03 09:13:28;;;;;;;25.13;13.20;;;21.60;99.90;;;;;;5026835;28;20199;-78
2023/10/03 09:16:00;;;;;;;25.33;12.80;;;21.60;99.90;;;;;;5029048;28;23831;-64
2023/10/03 09:18:27;;;;;;;20.63;12.57;;;21.70;99.90;;;;;;5031323;28;20236;-63
2023/10/03 09:20:59;;;;;;;26.77;13.50;;;21.70;99.90;;;;;;5028386;28;20218;-63
2023/10/03 09:23:27;;;;;;;23.13;13.27;;;21.80;99.90;;;;;;5038143;28;20496;-63
2023/10/03 09:25:55;;;;;;;25.83;12.97;;;21.90;99.90;;;;;;5024618;28;20670;-63
2023/10/03 09:28:27;;;;;;;20.37;11.80;;;22.00;99.90;;;;;;5024705;28;20226;-63
2023/10/03 09:30:55;;;;;;;29.90;14.03;;;22.10;99.90;;;;;;5025048;28;20269;-64
2023/10/03 09:33:22;;;;;;;24.80;12.70;;;22.10;99.90;;;;;;5028663;28;20198;-63
2023/10/03 09:35:57;;;;;;;25.80;13.37;;;22.20;99.90;;;;;;5031576;28;20206;-63
2023/10/03 09:38:45;;;;;;;24.60;14.13;;;22.20;99.90;;;;;;5030533;28;20190;-66
2023/10/03 09:41:18;;;;;;;22.40;13.57;;;22.30;99.90;;;;;;5029379;28;20336;-64
2023/10/03 09:43:49;;;;;;;22.07;12.47;;;22.30;99.90;;;;;;5028708;28;20289;-65
2023/10/03 09:49:08;;;;;;;22.30;12.30;;;22.40;99.90;;;;;;5027445;28;20246;-65
2023/10/03 09:51:36;;;;;;;22.80;13.03;;;22.50;99.90;;;;;;5027673;28;20215;-65
2023/10/03 09:54:12;;;;;;;24.00;13.37;;;22.50;99.90;;;;;;5030438;28;20572;-66
2023/10/03 09:56:44;;;;;;;25.67;13.07;;;22.50;99.90;;;;;;5029818;28;20274;-66
2023/10/03 09:59:17;;;;;;;21.33;12.73;;;22.60;99.90;;;;;;5025615;28;20654;-66
2023/10/03 10:01:45;;;;;;;18.27;12.20;;;22.70;99.90;;;;;;5025487;28;20630;-73
2023/10/03 10:04:15;;;;;;;22.90;12.47;;;22.70;99.90;;;;;;5028317;28;20293;-62
2023/10/03 10:06:50;;;;;;;25.77;12.27;;;22.80;99.90;;;;;;5027207;28;20214;-62
2023/10/03 10:09:28;;;;;;;20.80;12.57;;;22.90;99.90;;;;;;5024472;28;20202;-62
2023/10/03 10:12:12;;;;;;;23.63;13.67;;;23.00;99.90;;;;;;5027218;28;20191;-64
2023/10/03 10:15:00;;;;;;;24.38;13.45;;;23.00;99.90;;;;;;5031772;28;20198;-67
2023/10/03 10:17:51;;;;;;;20.93;12.37;;;23.10;99.90;;;;;;5030117;28;20190;-65
2023/10/03 10:20:27;;;;;;;21.30;12.07;;;23.30;99.90;;;;;;5029125;28;20361;-65
2023/10/03 10:22:59;;;;;;;19.97;11.30;;;23.30;99.90;;;;;;5026389;28;20198;-66
2023/10/03 10:25:56;;;;;;;17.57;11.37;;;23.40;99.90;;;;;;5028905;28;20560;-69
2023/10/03 10:28:20;;;;;;;22.83;12.33;;;23.40;99.90;;;;;;5027107;28;20306;-64
2023/10/03 10:31:11;;;;;;;19.43;12.83;;;23.50;99.90;;;;;;5025500;28;20195;-64
2023/10/03 10:33:37;;;;;;;19.80;12.38;;;23.70;99.90;;;;;;5025706;28;20211;-64
2023/10/03 10:36:04;;;;;;;21.00;12.43;;;23.70;99.90;;;;;;5029572;28;20673;-66
2023/10/03 10:38:32;;;;;;;18.60;11.30;;;23.70;99.90;;;;;;5030477;28;20238;-65
2023/10/03 10:44:14;;;;;;;22.45;12.25;;;23.80;99.90;;;;;;5028268;28;20233;-64
2023/10/03 10:46:46;;;;;;;20.20;10.90;;;23.80;99.90;;;;;;5025555;28;20199;-67
2023/10/03 10:49:30;;;;;;;17.05;10.98;;;24.00;99.90;;;;;;5033615;28;20195;-65
2023/10/03 10:52:01;;;;;;;24.93;11.83;;;23.90;99.90;;;;;;5034833;28;20203;-66
2023/10/03 10:54:27;;;;;;;19.37;10.83;;;23.90;99.90;;;;;;5030491;28;20248;-66
2023/10/03 10:57:03;;;;;;;23.45;11.48;;;23.90;99.90;;;;;;5045450;28;20206;-65
2023/10/03 10:59:29;;;;;;;33.60;12.88;;;23.90;99.90;;;;;;5034083;28;20293;-71
2023/10/03 11:01:57;;;;;;;19.02;11.27;;;23.90;99.90;;;;;;5030104;28;20202;-72
2023/10/03 11:04:24;;;;;;;18.10;11.20;;;23.90;99.90;;;;;;5034468;28;20186;-74
2023/10/03 11:06:52;;;;;;;17.25;10.55;;;24.00;99.90;;;;;;5032697;28;20202;-64
2023/10/03 11:09:21;;;;;;;17.05;10.25;;;24.00;99.90;;;;;;5030603;28;20248;-66
2023/10/03 11:11:47;;;;;;;16.43;10.93;;;24.00;99.90;;;;;;5026642;28;20753;-65
2023/10/03 11:14:29;;;;;;;17.67;10.33;;;24.00;99.90;;;;;;5029171;28;20221;-66
2023/10/03 11:16:55;;;;;;;21.75;10.93;;;23.90;99.90;;;;;;5031071;28;20198;-65
2023/10/03 11:19:21;;;;;;;20.67;11.13;;;24.00;99.90;;;;;;5026560;28;20317;-67
2023/10/03 11:21:48;;;;;;;21.03;9.23;;;24.00;99.90;;;;;;5030247;28;20735;-68
2023/10/03 11:24:24;;;;;;;17.50;10.75;;;23.90;99.90;;;;;;5030585;28;20728;-79
2023/10/03 11:26:53;;;;;;;19.83;10.17;;;23.90;99.90;;;;;;5028882;28;20222;-65
2023/10/03 11:29:46;;;;;;;21.45;10.57;;;23.90;99.90;;;;;;5028246;28;20538;-65
2023/10/03 11:32:30;;;;;;;19.90;10.80;;;23.80;99.90;;;;;;5026907;28;20191;-64
2023/10/03 11:34:57;;;;;;;21.07;9.73;;;23.80;99.90;;;;;;5028633;28;20191;-65
2023/10/03 11:37:45;;;;;;;16.42;9.77;;;23.80;99.90;;;;;;5026259;28;20756;-65
2023/10/03 11:40:11;;;;;;;17.33;9.47;;;23.70;99.90;;;;;;5031126;28;20218;-64
2023/10/03 11:42:55;;;;;;;16.80;9.27;;;23.80;99.90;;;;;;5024444;28;20198;-64
2023/10/03 11:45:23;;;;;;;17.97;9.87;;;23.70;99.90;;;;;;5039468;28;20661;-66
2023/10/03 11:48:17;;;;;;;19.67;10.17;;;23.70;99.90;;;;;;5027176;28;20206;-67
2023/10/03 11:50:44;;;;;;;13.57;8.63;;;23.60;99.90;;;;;;5027782;28;20202;-63
2023/10/03 11:53:10;;;;;;;16.10;9.97;;;23.50;99.90;;;;;;5027502;28;20193;-66
2023/10/03 11:55:38;;;;;;;12.97;9.17;;;23.50;99.90;;;;;;5032104;28;20253;-66
2023/10/03 11:58:08;;;;;;;14.15;9.20;;;23.40;99.90;;;;;;5031346;28;20248;-64
2023/10/03 12:00:35;;;;;;;20.90;9.87;;;23.50;99.90;;;;;;5031184;28;20254;-65
2023/10/03 12:03:03;;;;;;;16.20;9.77;;;23.40;99.90;;;;;;5032834;28;20571;-63
2023/10/03 12:05:29;;;;;;;17.10;9.90;;;23.30;99.90;;;;;;5029109;28;20198;-65
2023/10/03 12:07:56;;;;;;;16.93;9.90;;;23.20;99.90;;;;;;5029255;28;20935;-64
2023/10/03 12:10:30;;;;;;;17.10;10.03;;;23.00;99.90;;;;;;5034592;28;20210;-65
2023/10/03 12:12:56;;;;;;;18.73;11.90;;;22.90;99.90;;;;;;5032741;28;20198;-65
2023/10/03 12:15:23;;;;;;;23.27;12.57;;;22.90;99.90;;;;;;5030894;28;20226;-66
2023/10/03 12:17:50;;;;;;;20.48;13.50;;;22.80;99.90;;;;;;5032414;28;20194;-65
2023/10/03 12:20:18;;;;;;;18.27;12.50;;;22.80;99.90;;;;;;5030782;28;20219;-66
2023/10/03 12:22:48;;;;;;;18.83;12.40;;;22.90;99.90;;;;;;5028558;28;20756;-64
2023/10/03 12:25:15;;;;;;;18.47;12.13;;;22.80;99.90;;;;;;5029828;28;23928;-67
2023/10/03 12:27:43;;;;;;;20.53;11.60;;;22.90;99.90;;;;;;5026386;28;20323;-68
2023/10/03 12:30:15;;;;;;;14.03;9.60;;;22.80;99.90;;;;;;5024955;28;20183;-69
2023/10/03 12:32:45;;;;;;;15.97;9.17;;;22.90;99.90;;;;;;5023742;28;20202;-66
2023/10/03 12:35:12;;;;;;;14.17;9.53;;;23.10;99.90;;;;;;5028633;28;20226;-65
2023/10/03 12:37:38;;;;;;;14.73;9.00;;;23.10;99.90;;;;;;5027343;28;20233;-73
2023/10/03 12:40:13;;;;;;;17.47;10.10;;;23.10;99.90;;;;;;5026061;28;20211;-70
2023/10/03 12:42:41;;;;;;;17.00;9.13;;;23.10;99.90;;;;;;5027170;28;20198;-72
2023/10/03 12:45:07;;;;;;;14.03;9.43;;;23.10;99.90;;;;;;5028923;28;20617;-72